Darstellungsparameter: Aktuell verwendete Einstellungen:
Skalierung der Graphiken ... ?
xyx+y,   Skalierungsfaktor:      Skalierung: Modus: x, Faktor: 1
Darstellungszeitraum ... ?
Vom - - bis: - -   Zeitraum: 27.04.2009 - 29.04.2009
Min/Max/Avg-Anzeige ... ?
Zeige MMA aktuell
Zeige MMA Monat
Zeige MMA alles
Zeige --A aktuell
Zeige --A Monat
Zeige --A alles
Keine MMA-Anzeige
MMA:
Average (ber die Originaldaten)
MMA-Basis: 27.04.2009 - 29.04.2009
Quicknavigation für Darstellung... ?
Tage:      1T, 2T, 3T, 5T -1T -2T -3T -5T +1T +2T +3T +5T
Wochen: 1W, 2W, 3W -1W -2W -3W +1W +2W +3W
Monate: 1M, 3M, 6M -1M -3M -6M +1M +3M +6M
Jahre:    1J, 3J, 5J, 10J -1J -3J -5J -10J +1J +3J +5J +10J
Nutze für die Darstellung ... ?
Originaldaten oder Mittelwerte auf ...
Stundenbasis Tagesbasis Wochenbasis
Monatsbasis Jahresbasis      Datenbasis: Original-Daten
Darstellen als:
Statistik (Auto) Statistik J:M      Darstellung:
Zur Graphik,    zurück zur Übersicht aller Sensoren.
 
Tabellarische Datenbersicht: ?
 
Sensor: Nr:Datum:Temp:Abs-Feuchte:Windchill:Wind:
Aussen-T/F 1 27-04-2009 00:11:06 16 C 9.67 g/m*3 16 C 0 km/h
2 27-04-2009 00:23:06 15.8 C 9.69 g/m*3 15.8 C 0 km/h
3 27-04-2009 00:35:06 15.7 C 9.63 g/m*3 15.7 C 0 km/h
4 27-04-2009 00:47:06 15.7 C 9.63 g/m*3 15.7 C 0 km/h
5 27-04-2009 00:59:06 15.7 C 9.63 g/m*3 15.7 C 0 km/h
6 27-04-2009 01:11:06 15.5 C 9.52 g/m*3 15.5 C 0 km/h
7 27-04-2009 01:23:06 15.3 C 9.53 g/m*3 15.3 C 0 km/h
8 27-04-2009 01:35:06 15 C 9.36 g/m*3 15 C 0 km/h
9 27-04-2009 01:47:06 14.9 C 9.43 g/m*3 14.9 C 0 km/h
10 27-04-2009 01:59:06 14.7 C 9.32 g/m*3 14.7 C 0 km/h
11 27-04-2009 02:11:06 14.5 C 9.08 g/m*3 14.5 C 0 km/h
12 27-04-2009 02:23:06 14.2 C 9.04 g/m*3 14.2 C 0 km/h
13 27-04-2009 02:35:06 14 C 8.93 g/m*3 14 C 0 km/h
14 27-04-2009 02:47:06 14.1 C 8.86 g/m*3 14.1 C 0 km/h
15 27-04-2009 02:59:06 14.1 C 8.74 g/m*3 14.1 C 0 km/h
16 27-04-2009 03:11:06 14.1 C 8.62 g/m*3 14.1 C 0 km/h
17 27-04-2009 03:23:06 14.1 C 8.5 g/m*3 14.1 C 0 km/h
18 27-04-2009 03:35:06 14.1 C 8.5 g/m*3 14.1 C 0 km/h
19 27-04-2009 03:47:07 14 C 8.32 g/m*3 14 C 0 km/h
20 27-04-2009 03:59:07 13.8 C 8.34 g/m*3 13.8 C 0 km/h
21 27-04-2009 04:11:07 14 C 8.32 g/m*3 14 C 0 km/h
22 27-04-2009 04:23:07 12.8 C 8.62 g/m*3 12.8 C 0 km/h
23 27-04-2009 04:35:07 12.6 C 9.18 g/m*3 12.6 C 0 km/h
24 27-04-2009 04:47:07 12.1 C 9.01 g/m*3 12.1 C 0 km/h
25 27-04-2009 04:59:07 11.5 C 8.99 g/m*3 11.5 C 0 km/h
Sensor: Nr:Datum:Temp:Abs-Feuchte:Windchill:Wind:
Aussen-T/F 26 27-04-2009 05:11:07 11.5 C 8.99 g/m*3 11.5 C 0 km/h
27 27-04-2009 05:23:07 11.8 C 9.26 g/m*3 11.8 C 0 km/h
28 27-04-2009 05:35:07 11.9 C 9.32 g/m*3 11.9 C 0 km/h
29 27-04-2009 05:47:07 11.8 C 9.16 g/m*3 11.8 C 0 km/h
30 27-04-2009 05:59:07 11.5 C 8.88 g/m*3 11.5 C 0 km/h
31 27-04-2009 06:11:07 11.3 C 8.77 g/m*3 11.3 C 0 km/h
32 27-04-2009 06:23:07 11.5 C 8.88 g/m*3 11.5 C 0 km/h
33 27-04-2009 06:35:07 11.7 C 8.99 g/m*3 11.7 C 0 km/h
34 27-04-2009 06:47:07 12 C 9.06 g/m*3 12 C 0 km/h
35 27-04-2009 06:59:07 12.1 C 9.01 g/m*3 12.1 C 0 km/h
36 27-04-2009 07:11:05 12.1 C 8.79 g/m*3 12.1 C 0 km/h
37 27-04-2009 07:23:05 12.2 C 8.74 g/m*3 12.2 C 0 km/h
38 27-04-2009 07:35:05 12.4 C 8.85 g/m*3 12.4 C 0 km/h
39 27-04-2009 07:47:04 12.7 C 8.68 g/m*3 12.7 C 0 km/h
40 27-04-2009 07:59:04 12.7 C 8.68 g/m*3 12.7 C 0 km/h
41 27-04-2009 08:11:05 13 C 8.51 g/m*3 13 C 0 km/h
42 27-04-2009 08:23:04 13.1 C 8.1 g/m*3 13.1 C 0 km/h
43 27-04-2009 08:35:04 13.4 C 8.14 g/m*3 13.4 C 0 km/h
44 27-04-2009 08:47:04 13.6 C 8.12 g/m*3 13.6 C 0 km/h
45 27-04-2009 08:59:04 13.5 C 7.84 g/m*3 13.5 C 0 km/h
46 27-04-2009 09:11:04 13.2 C 7.46 g/m*3 13.2 C 0 km/h
47 27-04-2009 09:23:04 13.1 C 7.53 g/m*3 13.1 C 0 km/h
48 27-04-2009 09:35:04 13.2 C 7.46 g/m*3 13.2 C 0 km/h
49 27-04-2009 09:47:03 13.4 C 7.44 g/m*3 13.4 C 0 km/h
50 27-04-2009 09:59:03 14 C 7.24 g/m*3 14 C 0 km/h
Sensor: Nr:Datum:Temp:Abs-Feuchte:Windchill:Wind:
Aussen-T/F 51 27-04-2009 10:11:04 14.5 C 7.09 g/m*3 14.5 C 0 km/h
52 27-04-2009 10:23:03 14.7 C 6.92 g/m*3 14.7 C 0 km/h
53 27-04-2009 10:35:03 14.4 C 6.55 g/m*3 14.4 C 0 km/h
54 27-04-2009 10:47:03 14.6 C 6.63 g/m*3 14.6 C 0 km/h
55 27-04-2009 10:59:03 14.8 C 6.46 g/m*3 14.8 C 0 km/h
56 27-04-2009 11:11:03 14.8 C 6.33 g/m*3 14.8 C 0 km/h
57 27-04-2009 11:23:02 14.9 C 6.12 g/m*3 14.9 C 0 km/h
58 27-04-2009 11:35:03 15.5 C 6.08 g/m*3 15.5 C 0 km/h
59 27-04-2009 11:47:02 14.9 C 6.12 g/m*3 14.9 C 0 km/h
60 27-04-2009 11:59:02 15.5 C 5.95 g/m*3 15.5 C 0 km/h
61 27-04-2009 12:11:02 15.6 C 5.72 g/m*3 15.6 C 0 km/h
62 27-04-2009 12:23:01 15.3 C 5.75 g/m*3 15.3 C 0 km/h
63 27-04-2009 12:35:02 15.4 C 5.91 g/m*3 15.4 C 0 km/h
64 27-04-2009 12:47:02 15.5 C 5.95 g/m*3 15.5 C 0 km/h
65 27-04-2009 12:59:02 15.6 C 5.98 g/m*3 15.6 C 0 km/h
66 27-04-2009 13:11:01 15.4 C 5.78 g/m*3 15.4 C 0 km/h
67 27-04-2009 13:23:02 15.4 C 5.91 g/m*3 15.4 C 0 km/h
68 27-04-2009 13:35:01 15.7 C 6.15 g/m*3 15.7 C 0 km/h
69 27-04-2009 13:47:01 16.6 C 5.93 g/m*3 16.6 C 0 km/h
70 27-04-2009 13:59:01 16.2 C 5.79 g/m*3 16.2 C 0 km/h
71 27-04-2009 14:11:01 17 C 5.93 g/m*3 17 C 0 km/h
72 27-04-2009 14:23:01 16.6 C 5.65 g/m*3 16.6 C 0 km/h
73 27-04-2009 14:35:01 16.4 C 5.58 g/m*3 16.4 C 0 km/h
74 27-04-2009 14:47:01 16.6 C 5.51 g/m*3 16.6 C 0 km/h
75 27-04-2009 14:59:01 16.6 C 5.37 g/m*3 16.6 C 0 km/h
Sensor: Nr:Datum:Temp:Abs-Feuchte:Windchill:Wind:
Aussen-T/F 76 27-04-2009 15:11:01 16.6 C 5.37 g/m*3 16.6 C 0 km/h
77 27-04-2009 15:23:00 16.6 C 5.65 g/m*3 16.6 C 0 km/h
78 27-04-2009 15:35:00 17 C 5.5 g/m*3 17 C 0 km/h
79 27-04-2009 15:47:00 17.1 C 5.24 g/m*3 17.1 C 0 km/h
80 27-04-2009 15:59:00 17.2 C 5.27 g/m*3 17.2 C 0 km/h
81 27-04-2009 16:11:00 18.5 C 5.38 g/m*3 18.5 C 0 km/h
82 27-04-2009 16:23:59 18 C 5.38 g/m*3 18 C 0 km/h
83 27-04-2009 16:35:00 17.4 C 5.19 g/m*3 17.4 C 0 km/h
84 27-04-2009 16:47:59 17.2 C 5.13 g/m*3 17.2 C 0 km/h
85 27-04-2009 16:59:59 17.6 C 5.25 g/m*3 17.6 C 0 km/h
86 27-04-2009 17:11:59 18 C 5.22 g/m*3 18 C 0 km/h
87 27-04-2009 17:23:59 19.3 C 4.98 g/m*3 19.3 C 0 km/h
88 27-04-2009 17:35:02 19.2 C 4.78 g/m*3 19.2 C 0 km/h
89 27-04-2009 17:47:01 19.3 C 4.98 g/m*3 19.3 C 0 km/h
90 27-04-2009 17:59:01 19.3 C 4.64 g/m*3 19.3 C 0 km/h
91 27-04-2009 18:11:01 19.8 C 5.12 g/m*3 19.8 C 0 km/h
92 27-04-2009 18:23:01 19.6 C 4.9 g/m*3 19.6 C 0 km/h
93 27-04-2009 18:35:01 18.4 C 5.03 g/m*3 18.4 C 0 km/h
94 27-04-2009 18:47:01 18.1 C 5.1 g/m*3 18.1 C 0 km/h
95 27-04-2009 18:59:01 18 C 4.92 g/m*3 18 C 0 km/h
96 27-04-2009 19:11:01 17.8 C 5.16 g/m*3 17.8 C 0 km/h
97 27-04-2009 19:23:00 18 C 5.07 g/m*3 18 C 0 km/h
98 27-04-2009 19:35:01 17.2 C 5.13 g/m*3 17.2 C 0 km/h
99 27-04-2009 19:47:00 16.9 C 5.32 g/m*3 16.9 C 0 km/h
100 27-04-2009 19:59:00 16.7 C 5.54 g/m*3 16.7 C 0 km/h
Sensor: Nr:Datum:Temp:Abs-Feuchte:Windchill:Wind:
Aussen-T/F 101 27-04-2009 20:11:00 16.2 C 5.52 g/m*3 16.2 C 0 km/h
102 27-04-2009 20:22:59 15.8 C 5.92 g/m*3 15.8 C 0 km/h
103 27-04-2009 20:35:00 15.4 C 5.91 g/m*3 15.4 C 0 km/h
104 27-04-2009 20:47:59 14.9 C 5.86 g/m*3 14.9 C 0 km/h
105 27-04-2009 20:59:59 14.3 C 5.9 g/m*3 14.3 C 0 km/h
106 27-04-2009 21:11:59 14.2 C 6.11 g/m*3 14.2 C 0 km/h
107 27-04-2009 21:23:00 14.3 C 6.14 g/m*3 14.3 C 0 km/h
108 27-04-2009 21:35:59 14.3 C 6.14 g/m*3 14.3 C 0 km/h
109 27-04-2009 21:48:01 14.1 C 6.07 g/m*3 14.1 C 0 km/h
110 27-04-2009 22:00:01 14.1 C 6.07 g/m*3 14.1 C 0 km/h
111 27-04-2009 22:12:01 14.1 C 6.19 g/m*3 14.1 C 0 km/h
112 27-04-2009 22:24:01 14.1 C 6.19 g/m*3 14.1 C 0 km/h
113 27-04-2009 22:36:01 13.2 C 6.89 g/m*3 13.2 C 0 km/h
114 27-04-2009 22:48:01 12.6 C 7.19 g/m*3 12.6 C 0 km/h
115 27-04-2009 23:00:01 12.5 C 7.37 g/m*3 12.5 C 0 km/h
116 27-04-2009 23:12:01 12.8 C 7.06 g/m*3 12.8 C 0 km/h
117 27-04-2009 23:24:01 12.9 C 6.99 g/m*3 12.9 C 0 km/h
118 27-04-2009 23:36:01 12.4 C 6.99 g/m*3 12.4 C 0 km/h
119 27-04-2009 23:48:01 12 C 7.25 g/m*3 12 C 0 km/h
120 28-04-2009 00:00:01 12.4 C 7.43 g/m*3 12.4 C 0 km/h
121 28-04-2009 00:12:01 12.5 C 7.48 g/m*3 12.5 C 0 km/h
122 28-04-2009 00:24:01 12.1 C 7.29 g/m*3 12.1 C 0 km/h
123 28-04-2009 00:36:01 11.5 C 7.23 g/m*3 11.5 C 0 km/h
124 28-04-2009 00:48:01 10.8 C 7.71 g/m*3 10.8 C 0 km/h
125 28-04-2009 01:00:01 10.7 C 8.05 g/m*3 10.7 C 0 km/h
Sensor: Nr:Datum:Temp:Abs-Feuchte:Windchill:Wind:
Aussen-T/F 126 28-04-2009 01:12:01 10.6 C 8.2 g/m*3 10.6 C 0 km/h
127 28-04-2009 01:24:01 10.5 C 8.24 g/m*3 10.5 C 0 km/h
128 28-04-2009 01:36:01 10.5 C 8.34 g/m*3 10.5 C 0 km/h
129 28-04-2009 01:48:02 10.6 C 8.49 g/m*3 10.6 C 0 km/h
130 28-04-2009 02:00:02 10.7 C 8.55 g/m*3 10.7 C 0 km/h
131 28-04-2009 02:12:02 10.7 C 8.55 g/m*3 10.7 C 0 km/h
132 28-04-2009 02:24:02 10.8 C 8.6 g/m*3 10.8 C 0 km/h
133 28-04-2009 02:36:02 10.9 C 8.65 g/m*3 10.9 C 0 km/h
134 28-04-2009 02:48:02 10.6 C 8.49 g/m*3 10.6 C 0 km/h
135 28-04-2009 03:00:02 10.5 C 8.53 g/m*3 10.5 C 0 km/h
136 28-04-2009 03:12:02 10.5 C 8.63 g/m*3 10.5 C 0 km/h
137 28-04-2009 03:24:02 10.6 C 8.69 g/m*3 10.6 C 0 km/h
138 28-04-2009 03:36:02 10.6 C 8.69 g/m*3 10.6 C 0 km/h
139 28-04-2009 03:48:02 10.5 C 8.63 g/m*3 10.5 C 0 km/h
140 28-04-2009 04:00:02 10.5 C 8.63 g/m*3 10.5 C 0 km/h
141 28-04-2009 04:12:02 10.4 C 8.67 g/m*3 10.4 C 0 km/h
142 28-04-2009 04:24:02 10.4 C 8.58 g/m*3 10.4 C 0 km/h
143 28-04-2009 04:36:02 10.2 C 8.56 g/m*3 10.2 C 0 km/h
144 28-04-2009 04:48:02 10.4 C 8.67 g/m*3 10.4 C 0 km/h
145 28-04-2009 05:00:02 10.2 C 8.56 g/m*3 10.2 C 0 km/h
146 28-04-2009 05:12:02 10.3 C 8.62 g/m*3 10.3 C 0 km/h
147 28-04-2009 05:24:02 10.1 C 8.51 g/m*3 10.1 C 0 km/h
148 28-04-2009 05:36:02 10.1 C 8.51 g/m*3 10.1 C 0 km/h
149 28-04-2009 05:48:03 10.2 C 8.56 g/m*3 10.2 C 0 km/h
150 28-04-2009 06:00:03 10.1 C 8.51 g/m*3 10.1 C 0 km/h
Sensor: Nr:Datum:Temp:Abs-Feuchte:Windchill:Wind:
Aussen-T/F 151 28-04-2009 06:12:03 10.1 C 8.61 g/m*3 10.1 C 0 km/h
152 28-04-2009 06:24:03 10 C 8.55 g/m*3 10 C 0 km/h
153 28-04-2009 06:36:00 9.9 C 8.59 g/m*3 9.9 C 0 km/h
154 28-04-2009 06:48:00 9.9 C 8.59 g/m*3 9.9 C 0 km/h
155 28-04-2009 07:00:00 10 C 8.55 g/m*3 10 C 0 km/h
156 28-04-2009 07:12:00 10.2 C 8.66 g/m*3 10.2 C 0 km/h
157 28-04-2009 07:24:00 10.2 C 8.66 g/m*3 10.2 C 0 km/h
158 28-04-2009 07:36:00 10.3 C 8.71 g/m*3 10.3 C 0 km/h
159 28-04-2009 07:48:59 10.3 C 8.71 g/m*3 10.3 C 0 km/h
160 28-04-2009 08:00:00 10.4 C 8.77 g/m*3 10.4 C 0 km/h
161 28-04-2009 08:12:01 10.5 C 8.83 g/m*3 10.5 C 0 km/h
162 28-04-2009 08:24:59 10.5 C 8.83 g/m*3 10.5 C 0 km/h
163 28-04-2009 08:36:59 10.8 C 8.99 g/m*3 10.8 C 0 km/h
164 28-04-2009 08:48:59 10.9 C 9.05 g/m*3 10.9 C 0 km/h
165 28-04-2009 09:00:59 10.9 C 9.05 g/m*3 10.9 C 0 km/h
166 28-04-2009 09:12:59 11 C 9.01 g/m*3 11 C 0 km/h
167 28-04-2009 09:24:59 11 C 9.01 g/m*3 11 C 0 km/h
168 28-04-2009 09:36:58 10.8 C 8.9 g/m*3 10.8 C 0 km/h
169 28-04-2009 09:48:59 10.8 C 8.9 g/m*3 10.8 C 0 km/h
170 28-04-2009 10:00:58 11 C 9.01 g/m*3 11 C 0 km/h
171 28-04-2009 10:12:58 11.1 C 9.07 g/m*3 11.1 C 0 km/h
172 28-04-2009 10:24:58 11.1 C 9.07 g/m*3 11.1 C 0 km/h
173 28-04-2009 10:36:58 11.5 C 9.3 g/m*3 11.5 C 0 km/h
174 28-04-2009 10:48:58 11.4 C 9.24 g/m*3 11.4 C 0 km/h
175 28-04-2009 11:00:57 11.5 C 9.3 g/m*3 11.5 C 0 km/h
Sensor: Nr:Datum:Temp:Abs-Feuchte:Windchill:Wind:
Aussen-T/F 176 28-04-2009 11:12:57 11.2 C 9.02 g/m*3 11.2 C 0 km/h
177 28-04-2009 11:24:58 11.3 C 9.08 g/m*3 11.3 C 0 km/h
178 28-04-2009 11:36:58 11.5 C 9.19 g/m*3 11.5 C 0 km/h
179 28-04-2009 11:48:57 11.6 C 9.15 g/m*3 11.6 C 0 km/h
180 28-04-2009 12:00:58 11.9 C 9.32 g/m*3 11.9 C 0 km/h
181 28-04-2009 12:12:58 11.6 C 9.04 g/m*3 11.6 C 0 km/h
182 28-04-2009 12:24:57 12.1 C 9.22 g/m*3 12.1 C 0 km/h
183 28-04-2009 12:36:57 12.2 C 9.06 g/m*3 12.2 C 0 km/h
184 28-04-2009 12:48:57 12.6 C 9.29 g/m*3 12.6 C 0 km/h
185 28-04-2009 13:00:57 12.8 C 9.3 g/m*3 12.8 C 0 km/h
186 28-04-2009 13:12:57 12.7 C 9.24 g/m*3 12.7 C 0 km/h
187 28-04-2009 13:24:56 12.7 C 9.02 g/m*3 12.7 C 0 km/h
188 28-04-2009 13:36:56 11.5 C 8.47 g/m*3 11.5 C 0 km/h
189 28-04-2009 13:48:56 10.4 C 7.9 g/m*3 10.4 C 0 km/h
190 28-04-2009 14:00:56 10.5 C 7.95 g/m*3 10.5 C 0 km/h
191 28-04-2009 14:12:56 10.5 C 8.05 g/m*3 10.5 C 0 km/h
192 28-04-2009 14:24:56 10.7 C 8.05 g/m*3 10.7 C 0 km/h
193 28-04-2009 14:36:56 11.5 C 8.06 g/m*3 11.5 C 0 km/h
194 28-04-2009 14:48:56 11.6 C 7.8 g/m*3 11.6 C 0 km/h
195 28-04-2009 15:00:55 11.5 C 7.64 g/m*3 11.5 C 0 km/h
196 28-04-2009 15:12:55 11.5 C 7.44 g/m*3 11.5 C 0 km/h
197 28-04-2009 15:24:56 11.6 C 7.48 g/m*3 11.6 C 0 km/h
198 28-04-2009 15:36:55 11.9 C 7.52 g/m*3 11.9 C 0 km/h
199 28-04-2009 15:48:55 11.9 C 7.52 g/m*3 11.9 C 0 km/h
200 28-04-2009 16:00:55 12.1 C 7.4 g/m*3 12.1 C 0 km/h
Sensor: Nr:Datum:Temp:Abs-Feuchte:Windchill:Wind:
Aussen-T/F 201 28-04-2009 16:12:55 12.2 C 7.34 g/m*3 12.2 C 0 km/h
202 28-04-2009 16:24:55 12.5 C 7.26 g/m*3 12.5 C 0 km/h
203 28-04-2009 16:36:54 13.1 C 7.07 g/m*3 13.1 C 0 km/h
204 28-04-2009 16:48:55 13.3 C 6.82 g/m*3 13.3 C 0 km/h
205 28-04-2009 17:00:55 13.4 C 6.74 g/m*3 13.4 C 0 km/h
206 28-04-2009 17:12:55 13.6 C 6.59 g/m*3 13.6 C 0 km/h
207 28-04-2009 17:24:54 13.4 C 6.39 g/m*3 13.4 C 0 km/h
208 28-04-2009 17:36:54 13.3 C 6.47 g/m*3 13.3 C 0 km/h
209 28-04-2009 17:48:54 13.4 C 6.51 g/m*3 13.4 C 0 km/h
210 28-04-2009 18:00:54 13.2 C 6.09 g/m*3 13.2 C 0 km/h
211 28-04-2009 18:12:54 13.2 C 6.2 g/m*3 13.2 C 0 km/h
212 28-04-2009 18:24:53 12.9 C 5.97 g/m*3 12.9 C 0 km/h
213 28-04-2009 18:36:54 13 C 6.12 g/m*3 13 C 0 km/h
214 28-04-2009 18:48:53 13.1 C 6.28 g/m*3 13.1 C 0 km/h
215 28-04-2009 19:00:53 12.9 C 6.2 g/m*3 12.9 C 0 km/h
216 28-04-2009 19:12:53 12.9 C 6.88 g/m*3 12.9 C 0 km/h
217 28-04-2009 19:24:53 12.8 C 7.17 g/m*3 12.8 C 0 km/h
218 28-04-2009 19:36:53 12.8 C 7.17 g/m*3 12.8 C 0 km/h
219 28-04-2009 19:48:52 12.7 C 7.01 g/m*3 12.7 C 0 km/h
220 28-04-2009 20:00:53 12.6 C 7.08 g/m*3 12.6 C 0 km/h
221 28-04-2009 20:12:53 12.5 C 7.04 g/m*3 12.5 C 0 km/h
222 28-04-2009 20:24:53 11.6 C 6.96 g/m*3 11.6 C 0 km/h
223 28-04-2009 20:36:52 10.8 C 6.92 g/m*3 10.8 C 0 km/h
224 28-04-2009 20:48:53 10.1 C 6.71 g/m*3 10.1 C 0 km/h
225 28-04-2009 21:00:52 9.6 C 6.69 g/m*3 9.6 C 0 km/h
Sensor: Nr:Datum:Temp:Abs-Feuchte:Windchill:Wind:
Aussen-T/F 226 28-04-2009 21:12:52 9.2 C 6.79 g/m*3 9.2 C 0 km/h
227 28-04-2009 21:24:52 9.1 C 6.83 g/m*3 9.1 C 0 km/h
228 28-04-2009 21:36:52 9.2 C 6.88 g/m*3 9.2 C 0 km/h
229 28-04-2009 21:49:53 9.3 C 6.92 g/m*3 9.3 C 0 km/h
230 28-04-2009 22:01:53 9.2 C 6.88 g/m*3 9.2 C 0 km/h
231 28-04-2009 22:13:53 9.1 C 7.01 g/m*3 9.1 C 0 km/h
232 28-04-2009 22:25:53 9 C 6.96 g/m*3 9 C 0 km/h
233 28-04-2009 22:37:53 8.9 C 7.01 g/m*3 8.9 C 0 km/h
234 28-04-2009 22:49:53 8.6 C 6.87 g/m*3 8.6 C 0 km/h
235 28-04-2009 23:01:53 8.7 C 6.92 g/m*3 8.7 C 0 km/h
236 28-04-2009 23:13:53 8.8 C 6.96 g/m*3 8.8 C 0 km/h
237 28-04-2009 23:25:53 8.9 C 7.01 g/m*3 8.9 C 0 km/h
238 28-04-2009 23:37:53 8.8 C 6.96 g/m*3 8.8 C 0 km/h
239 28-04-2009 23:49:53 8.7 C 6.92 g/m*3 8.7 C 0 km/h
240 29-04-2009 00:01:53 8.6 C 6.96 g/m*3 8.6 C 0 km/h
241 29-04-2009 00:13:53 8.6 C 6.96 g/m*3 8.6 C 0 km/h
242 29-04-2009 00:25:53 8.6 C 7.05 g/m*3 8.6 C 0 km/h
243 29-04-2009 00:37:53 8.5 C 7 g/m*3 8.5 C 0 km/h
244 29-04-2009 00:49:54 8.4 C 7.04 g/m*3 8.4 C 0 km/h
245 29-04-2009 01:01:54 8.4 C 7.04 g/m*3 8.4 C 0 km/h
246 29-04-2009 01:13:54 8.3 C 7 g/m*3 8.3 C 0 km/h
247 29-04-2009 01:25:54 8.2 C 6.95 g/m*3 8.2 C 0 km/h
248 29-04-2009 01:37:54 8.1 C 6.91 g/m*3 8.1 C 0 km/h
249 29-04-2009 01:49:54 8 C 6.86 g/m*3 8 C 0 km/h
250 29-04-2009 02:01:54 7.9 C 6.9 g/m*3 7.9 C 0 km/h
Sensor: Nr:Datum:Temp:Abs-Feuchte:Windchill:Wind:
Aussen-T/F 251 29-04-2009 02:13:54 7.7 C 6.81 g/m*3 7.7 C 0 km/h
252 29-04-2009 02:25:54 7.7 C 6.89 g/m*3 7.7 C 0 km/h
253 29-04-2009 02:37:54 7.6 C 6.85 g/m*3 7.6 C 0 km/h
254 29-04-2009 02:49:54 7.4 C 6.76 g/m*3 7.4 C 0 km/h
255 29-04-2009 03:01:54 7.3 C 6.79 g/m*3 7.3 C 0 km/h
256 29-04-2009 03:13:54 7.3 C 6.87 g/m*3 7.3 C 0 km/h
257 29-04-2009 03:25:54 7.3 C 6.87 g/m*3 7.3 C 0 km/h
258 29-04-2009 03:37:54 7.2 C 6.83 g/m*3 7.2 C 0 km/h
259 29-04-2009 03:49:54 7.2 C 6.83 g/m*3 7.2 C 0 km/h
260 29-04-2009 04:01:54 7.1 C 6.79 g/m*3 7.1 C 0 km/h
261 29-04-2009 04:13:54 6.9 C 6.77 g/m*3 6.9 C 0 km/h
262 29-04-2009 04:25:54 6.9 C 6.77 g/m*3 6.9 C 0 km/h
263 29-04-2009 04:37:54 6.8 C 6.73 g/m*3 6.8 C 0 km/h
264 29-04-2009 04:49:55 6.7 C 6.69 g/m*3 6.7 C 0 km/h
265 29-04-2009 05:01:55 6.6 C 6.72 g/m*3 6.6 C 0 km/h
266 29-04-2009 05:13:55 6.6 C 6.72 g/m*3 6.6 C 0 km/h
267 29-04-2009 05:25:55 7 C 6.9 g/m*3 7 C 0 km/h
268 29-04-2009 05:37:55 7.2 C 6.99 g/m*3 7.2 C 0 km/h
269 29-04-2009 05:49:55 7.3 C 7.11 g/m*3 7.3 C 0 km/h
270 29-04-2009 06:01:55 7.1 C 6.94 g/m*3 7.1 C 0 km/h
271 29-04-2009 06:13:55 7 C 6.97 g/m*3 7 C 0 km/h
272 29-04-2009 06:25:55 6.9 C 6.93 g/m*3 6.9 C 0 km/h
273 29-04-2009 06:37:55 7 C 6.97 g/m*3 7 C 0 km/h
274 29-04-2009 06:49:55 7 C 6.97 g/m*3 7 C 0 km/h
275 29-04-2009 07:01:55 7 C 6.97 g/m*3 7 C 0 km/h
Sensor: Nr:Datum:Temp:Abs-Feuchte:Windchill:Wind:
Aussen-T/F 276 29-04-2009 07:13:55 7.1 C 7.02 g/m*3 7.1 C 0 km/h
277 29-04-2009 07:25:53 7.4 C 7.16 g/m*3 7.4 C 0 km/h
278 29-04-2009 07:37:52 7.6 C 7.25 g/m*3 7.6 C 0 km/h
279 29-04-2009 07:49:52 7.8 C 7.26 g/m*3 7.8 C 0 km/h
280 29-04-2009 08:01:52 8 C 7.19 g/m*3 8 C 0 km/h
281 29-04-2009 08:13:52 8.1 C 7.07 g/m*3 8.1 C 0 km/h
282 29-04-2009 08:25:52 8.1 C 6.99 g/m*3 8.1 C 0 km/h
283 29-04-2009 08:37:51 8.2 C 7.03 g/m*3 8.2 C 0 km/h
284 29-04-2009 08:49:51 8.5 C 7.17 g/m*3 8.5 C 0 km/h
285 29-04-2009 09:01:51 8.7 C 7.18 g/m*3 8.7 C 0 km/h
286 29-04-2009 09:13:51 9.3 C 7.28 g/m*3 9.3 C 0 km/h
287 29-04-2009 09:25:51 9.7 C 7.28 g/m*3 9.7 C 0 km/h
288 29-04-2009 09:37:51 10.3 C 7.28 g/m*3 10.3 C 0 km/h
289 29-04-2009 09:49:51 10.8 C 7.31 g/m*3 10.8 C 0 km/h
290 29-04-2009 10:01:50 11.5 C 7.33 g/m*3 11.5 C 0 km/h
291 29-04-2009 10:13:50 12.2 C 7.45 g/m*3 12.2 C 0 km/h
292 29-04-2009 10:25:51 12.9 C 7.44 g/m*3 12.9 C 0 km/h
293 29-04-2009 10:37:50 13.2 C 7.23 g/m*3 13.2 C 0 km/h
294 29-04-2009 10:49:50 13.5 C 7.25 g/m*3 13.5 C 0 km/h
295 29-04-2009 11:01:50 14.1 C 7.04 g/m*3 14.1 C 0 km/h
296 29-04-2009 11:13:50 14.7 C 6.92 g/m*3 14.7 C 0 km/h
297 29-04-2009 11:25:50 15.5 C 6.87 g/m*3 15.5 C 0 km/h
298 29-04-2009 11:37:50 15.5 C 6.74 g/m*3 15.5 C 0 km/h
299 29-04-2009 11:49:50 16.3 C 6.66 g/m*3 16.3 C 0 km/h
300 29-04-2009 12:01:50 16.6 C 6.5 g/m*3 16.6 C 0 km/h
Sensor: Nr:Datum:Temp:Abs-Feuchte:Windchill:Wind:
Aussen-T/F 301 29-04-2009 12:13:50 16.4 C 5.44 g/m*3 16.4 C 0 km/h
302 29-04-2009 12:25:49 17.3 C 5.6 g/m*3 17.3 C 0 km/h
303 29-04-2009 12:37:50 17 C 5.35 g/m*3 17 C 0 km/h
304 29-04-2009 12:49:49 17.9 C 5.65 g/m*3 17.9 C 0 km/h
305 29-04-2009 13:01:49 18.5 C 5.22 g/m*3 18.5 C 0 km/h
306 29-04-2009 13:13:50 18.6 C 4.93 g/m*3 18.6 C 0 km/h
307 29-04-2009 13:25:49 18.3 C 5 g/m*3 18.3 C 0 km/h
308 29-04-2009 13:37:49 18.5 C 4.59 g/m*3 18.5 C 0 km/h
309 29-04-2009 13:49:48 18.1 C 3.86 g/m*3 18.1 C 0 km/h
310 29-04-2009 14:01:48 17.9 C 4.12 g/m*3 17.9 C 0 km/h
311 29-04-2009 14:13:48 17.5 C 4.47 g/m*3 17.5 C 0 km/h
312 29-04-2009 14:25:49 18.5 C 4.75 g/m*3 18.5 C 0 km/h
313 29-04-2009 14:37:48 18.6 C 4.77 g/m*3 18.6 C 0 km/h
314 29-04-2009 14:49:48 20.3 C 5.1 g/m*3 20.3 C 0 km/h
315 29-04-2009 15:01:48 20.2 C 4.37 g/m*3 20.2 C 0 km/h
316 29-04-2009 15:13:48 18.1 C 4.94 g/m*3 18.1 C 0 km/h
317 29-04-2009 15:25:48 17.5 C 5.22 g/m*3 17.5 C 0 km/h
318 29-04-2009 15:37:47 18 C 4.92 g/m*3 18 C 0 km/h
319 29-04-2009 15:49:48 20 C 5.01 g/m*3 20 C 0 km/h
320 29-04-2009 16:01:47 21.1 C 4.97 g/m*3 21.1 C 0 km/h
321 29-04-2009 16:13:47 20.5 C 4.45 g/m*3 20.5 C 0 km/h
322 29-04-2009 16:25:47 20.7 C 4.5 g/m*3 20.7 C 0 km/h
323 29-04-2009 16:37:48 21.2 C 4.63 g/m*3 21.2 C 0 km/h
324 29-04-2009 16:49:47 21.8 C 4.22 g/m*3 21.8 C 0 km/h
325 29-04-2009 17:01:47 19.5 C 4.36 g/m*3 19.5 C 0 km/h
Sensor: Nr:Datum:Temp:Abs-Feuchte:Windchill:Wind:
Aussen-T/F 326 29-04-2009 17:13:47 17.6 C 4.65 g/m*3 17.6 C 0 km/h
327 29-04-2009 17:25:47 17.3 C 5.01 g/m*3 17.3 C 0 km/h
328 29-04-2009 17:37:47 16.8 C 5 g/m*3 16.8 C 0 km/h
329 29-04-2009 17:49:46 14.9 C 6.37 g/m*3 14.9 C 0 km/h
330 29-04-2009 18:01:47 13.7 C 8.64 g/m*3 13.7 C 0 km/h
331 29-04-2009 18:13:47 12.5 C 8.36 g/m*3 12.5 C 0 km/h
332 29-04-2009 18:25:46 12 C 8.42 g/m*3 12 C 0 km/h
333 29-04-2009 18:37:46 11.2 C 8.11 g/m*3 11.2 C 0 km/h
334 29-04-2009 18:49:46 11.8 C 8.63 g/m*3 11.8 C 0 km/h
335 29-04-2009 19:01:46 12.7 C 9.02 g/m*3 12.7 C 0 km/h
336 29-04-2009 19:13:46 12.8 C 8.62 g/m*3 12.8 C 0 km/h
337 29-04-2009 19:25:45 12.7 C 8.68 g/m*3 12.7 C 0 km/h
338 29-04-2009 19:37:46 12.5 C 8.58 g/m*3 12.5 C 0 km/h
339 29-04-2009 19:49:45 12.5 C 8.47 g/m*3 12.5 C 0 km/h
340 29-04-2009 20:01:45 12.2 C 8.09 g/m*3 12.2 C 0 km/h
341 29-04-2009 20:13:45 12.3 C 8.25 g/m*3 12.3 C 0 km/h
342 29-04-2009 20:25:45 12 C 7.99 g/m*3 12 C 0 km/h
343 29-04-2009 20:37:45 11.7 C 8.05 g/m*3 11.7 C 0 km/h
344 29-04-2009 20:49:44 11.7 C 8.05 g/m*3 11.7 C 0 km/h
345 29-04-2009 21:01:45 11.3 C 7.65 g/m*3 11.3 C 0 km/h
346 29-04-2009 21:13:46 11.1 C 7.55 g/m*3 11.1 C 0 km/h
347 29-04-2009 21:25:44 11 C 7.41 g/m*3 11 C 0 km/h
348 29-04-2009 21:37:44 10.8 C 7.41 g/m*3 10.8 C 0 km/h
349 29-04-2009 21:49:44 10.7 C 7.27 g/m*3 10.7 C 0 km/h
350 29-04-2009 22:01:44 10.6 C 7.22 g/m*3 10.6 C 0 km/h
Sensor: Nr:Datum:Temp:Abs-Feuchte:Windchill:Wind:
Aussen-T/F 351 29-04-2009 22:13:44 10.7 C 7.07 g/m*3 10.7 C 0 km/h
352 29-04-2009 22:25:44 10.7 C 7.07 g/m*3 10.7 C 0 km/h
353 29-04-2009 22:38:45 10.7 C 7.07 g/m*3 10.7 C 0 km/h
354 29-04-2009 22:50:45 10.7 C 7.07 g/m*3 10.7 C 0 km/h
355 29-04-2009 23:02:45 10.7 C 7.17 g/m*3 10.7 C 0 km/h
356 29-04-2009 23:14:46 10.6 C 7.12 g/m*3 10.6 C 0 km/h
357 29-04-2009 23:26:46 10.5 C 7.18 g/m*3 10.5 C 0 km/h
358 29-04-2009 23:38:46 10.3 C 7.18 g/m*3 10.3 C 0 km/h
359 29-04-2009 23:50:46 10 C 7.14 g/m*3 10 C 0 km/h

Legende:
   Min
   Max


Maximal/Minimal-Werte vom 27.04.2009 - 29.04.2009

Sensor Min Max Avg
Temp
(Aussen-T/F)
6.6 °C
29-04-2009  05:01:55
21.8 °C
29-04-2009  16:49:47
12.62 °C
Abs-Feuchte
(Aussen-T/F)
3.86 g/m*3
29-04-2009  13:49:48
9.69 g/m*3
27-04-2009  00:23:06
7.22 g/m*3
Windchill
(Aussen-T/F)
6.6 C
29-04-2009  05:01:55
21.8 C
29-04-2009  16:49:47
12.58 C

Die Daten stammen von einer Davis Vantage Pro 2 Wetter-Station und werden unter Linux mit der Software wview2wettercgi und aufbereitet. Alle Angaben erfolgen ohne Gewähr für ihre Vollständigkeit oder Richtigkeit.
Kontakt: Rainer Krienke krienke@uni-koblenz.de . Meine Webseiten an der Uni Koblenz oder privat.
Version: $Revision: 0.78 $